sensor_id;sensor_type;location;lat;lon;timestamp;pressure;altitude;pressure_sealevel;temperature;humidity
44441;BME280;30146;52.268;20.944;2023-05-23T00:00:08;100341.05;;;14.69;52.05
44441;BME280;30146;52.268;20.944;2023-05-23T00:02:44;100339.42;;;14.66;52.21
44441;BME280;30146;52.268;20.944;2023-05-23T00:05:17;100339.13;;;14.64;52.09
44441;BME280;30146;52.268;20.944;2023-05-23T00:07:48;100334.18;;;14.62;52.25
44441;BME280;30146;52.268;20.944;2023-05-23T00:10:19;100335.43;;;14.60;52.37
44441;BME280;30146;52.268;20.944;2023-05-23T00:12:50;100337.21;;;14.58;52.27
44441;BME280;30146;52.268;20.944;2023-05-23T00:15:21;100334.66;;;14.56;52.38
44441;BME280;30146;52.268;20.944;2023-05-23T00:17:53;100335.94;;;14.53;52.47
44441;BME280;30146;52.268;20.944;2023-05-23T00:20:24;100330.50;;;14.51;52.37
44441;BME280;30146;52.268;20.944;2023-05-23T00:22:55;100330.38;;;14.49;52.48
44441;BME280;30146;52.268;20.944;2023-05-23T00:25:27;100328.72;;;14.46;52.51
44441;BME280;30146;52.268;20.944;2023-05-23T00:28:03;100329.11;;;14.44;52.52
44441;BME280;30146;52.268;20.944;2023-05-23T00:30:35;100326.77;;;14.42;52.64
44441;BME280;30146;52.268;20.944;2023-05-23T00:33:06;100325.77;;;14.40;52.77
44441;BME280;30146;52.268;20.944;2023-05-23T00:35:37;100325.13;;;14.39;52.82
44441;BME280;30146;52.268;20.944;2023-05-23T00:38:09;100320.54;;;14.37;52.76
44441;BME280;30146;52.268;20.944;2023-05-23T00:40:41;100322.45;;;14.35;52.87
44441;BME280;30146;52.268;20.944;2023-05-23T00:43:12;100324.71;;;14.35;53.00
44441;BME280;30146;52.268;20.944;2023-05-23T00:45:43;100319.77;;;14.33;53.15
44441;BME280;30146;52.268;20.944;2023-05-23T00:48:14;100319.81;;;14.31;53.27
44441;BME280;30146;52.268;20.944;2023-05-23T00:50:46;100318.98;;;14.30;53.33
44441;BME280;30146;52.268;20.944;2023-05-23T00:53:17;100318.34;;;14.28;53.51
44441;BME280;30146;52.268;20.944;2023-05-23T00:55:48;100319.77;;;14.26;53.49
44441;BME280;30146;52.268;20.944;2023-05-23T00:58:20;100316.23;;;14.23;53.63
44441;BME280;30146;52.268;20.944;2023-05-23T01:00:52;100319.40;;;14.20;53.58
44441;BME280;30146;52.268;20.944;2023-05-23T01:03:24;100317.57;;;14.18;53.77
44441;BME280;30146;52.268;20.944;2023-05-23T01:05:57;100317.95;;;14.16;53.85
44441;BME280;30146;52.268;20.944;2023-05-23T01:08:29;100318.20;;;14.13;53.91
44441;BME280;30146;52.268;20.944;2023-05-23T01:11:03;100318.28;;;14.10;53.90
44441;BME280;30146;52.268;20.944;2023-05-23T01:13:44;100317.16;;;14.06;53.88
44441;BME280;30146;52.268;20.944;2023-05-23T01:16:19;100322.23;;;14.02;53.98
44441;BME280;30146;52.268;20.944;2023-05-23T01:19:00;100322.98;;;14.00;54.06
44441;BME280;30146;52.268;20.944;2023-05-23T01:21:38;100326.31;;;13.97;54.04
44441;BME280;30146;52.268;20.944;2023-05-23T01:24:29;100325.86;;;13.95;54.14
44441;BME280;30146;52.268;20.944;2023-05-23T01:27:21;100326.10;;;13.92;54.23
44441;BME280;30146;52.268;20.944;2023-05-23T01:29:55;100321.67;;;13.90;54.39
44441;BME280;30146;52.268;20.944;2023-05-23T01:39:22;100314.30;;;13.82;54.63
44441;BME280;30146;52.268;20.944;2023-05-23T01:45:35;100310.45;;;13.77;54.79
44441;BME280;30146;52.268;20.944;2023-05-23T01:51:19;100300.08;;;13.73;54.92
44441;BME280;30146;52.268;20.944;2023-05-23T01:53:51;100300.48;;;13.71;54.83
44441;BME280;30146;52.268;20.944;2023-05-23T01:56:23;100304.13;;;13.69;55.03
44441;BME280;30146;52.268;20.944;2023-05-23T01:58:55;100301.45;;;13.66;54.96
44441;BME280;30146;52.268;20.944;2023-05-23T02:01:27;100297.20;;;13.63;54.95
44441;BME280;30146;52.268;20.944;2023-05-23T02:03:59;100294.35;;;13.61;55.14
44441;BME280;30146;52.268;20.944;2023-05-23T02:06:32;100295.63;;;13.58;55.06
44441;BME280;30146;52.268;20.944;2023-05-23T02:09:04;100292.06;;;13.56;55.19
44441;BME280;30146;52.268;20.944;2023-05-23T02:11:35;100289.88;;;13.53;55.23
44441;BME280;30146;52.268;20.944;2023-05-23T02:14:08;100290.12;;;13.50;55.24
44441;BME280;30146;52.268;20.944;2023-05-23T02:16:39;100289.49;;;13.47;55.19
44441;BME280;30146;52.268;20.944;2023-05-23T02:19:10;100289.90;;;13.44;55.18
44441;BME280;30146;52.268;20.944;2023-05-23T02:21:41;100288.60;;;13.42;55.22
44441;BME280;30146;52.268;20.944;2023-05-23T02:24:12;100289.19;;;13.38;55.25
44441;BME280;30146;52.268;20.944;2023-05-23T02:26:43;100284.77;;;13.36;55.33
44441;BME280;30146;52.268;20.944;2023-05-23T02:29:14;100282.92;;;13.34;55.42
44441;BME280;30146;52.268;20.944;2023-05-23T02:31:45;100282.12;;;13.32;55.57
44441;BME280;30146;52.268;20.944;2023-05-23T02:34:17;100279.55;;;13.30;55.59
44441;BME280;30146;52.268;20.944;2023-05-23T02:36:48;100277.69;;;13.28;55.62
44441;BME280;30146;52.268;20.944;2023-05-23T02:39:20;100273.80;;;13.25;55.69
44441;BME280;30146;52.268;20.944;2023-05-23T02:41:52;100275.72;;;13.25;55.72
44441;BME280;30146;52.268;20.944;2023-05-23T02:44:22;100274.70;;;13.24;55.80
44441;BME280;30146;52.268;20.944;2023-05-23T02:46:56;100270.77;;;13.23;55.80
44441;BME280;30146;52.268;20.944;2023-05-23T02:49:27;100271.33;;;13.21;55.68
44441;BME280;30146;52.268;20.944;2023-05-23T02:51:58;100271.04;;;13.19;55.67
44441;BME280;30146;52.268;20.944;2023-05-23T02:54:29;100272.92;;;13.19;55.63
44441;BME280;30146;52.268;20.944;2023-05-23T02:57:00;100269.33;;;13.18;55.62
44441;BME280;30146;52.268;20.944;2023-05-23T02:59:32;100271.55;;;13.19;55.65
44441;BME280;30146;52.268;20.944;2023-05-23T03:02:03;100268.08;;;13.20;55.62
44441;BME280;30146;52.268;20.944;2023-05-23T03:04:34;100269.23;;;13.22;55.65
44441;BME280;30146;52.268;20.944;2023-05-23T03:07:06;100268.84;;;13.25;55.71
44441;BME280;30146;52.268;20.944;2023-05-23T03:09:56;100265.52;;;13.28;55.72
44441;BME280;30146;52.268;20.944;2023-05-23T03:12:27;100264.61;;;13.31;55.75
44441;BME280;30146;52.268;20.944;2023-05-23T03:14:58;100264.02;;;13.34;55.97
44441;BME280;30146;52.268;20.944;2023-05-23T03:17:30;100263.62;;;13.37;55.97
44441;BME280;30146;52.268;20.944;2023-05-23T03:20:01;100265.09;;;13.40;55.89
44441;BME280;30146;52.268;20.944;2023-05-23T03:22:32;100266.38;;;13.44;55.91
44441;BME280;30146;52.268;20.944;2023-05-23T03:25:05;100266.62;;;13.49;55.98
44441;BME280;30146;52.268;20.944;2023-05-23T03:27:37;100268.04;;;13.55;56.06
44441;BME280;30146;52.268;20.944;2023-05-23T03:30:09;100268.37;;;13.63;56.16
44441;BME280;30146;52.268;20.944;2023-05-23T03:32:41;100265.64;;;13.69;56.17
44441;BME280;30146;52.268;20.944;2023-05-23T03:35:12;100264.46;;;13.75;56.21
44441;BME280;30146;52.268;20.944;2023-05-23T03:37:43;100263.45;;;13.81;56.17
44441;BME280;30146;52.268;20.944;2023-05-23T03:40:14;100263.94;;;13.90;55.85
44441;BME280;30146;52.268;20.944;2023-05-23T03:42:48;100267.98;;;14.00;56.05
44441;BME280;30146;52.268;20.944;2023-05-23T03:45:19;100268.19;;;14.12;55.89
44441;BME280;30146;52.268;20.944;2023-05-23T03:47:50;100270.05;;;14.28;55.91
44441;BME280;30146;52.268;20.944;2023-05-23T03:50:22;100263.41;;;14.45;55.87
44441;BME280;30146;52.268;20.944;2023-05-23T03:52:53;100260.34;;;14.64;55.64
44441;BME280;30146;52.268;20.944;2023-05-23T03:55:24;100261.15;;;14.85;55.42
44441;BME280;30146;52.268;20.944;2023-05-23T03:57:56;100260.19;;;15.06;55.03
44441;BME280;30146;52.268;20.944;2023-05-23T04:00:27;100262.80;;;15.29;54.83
44441;BME280;30146;52.268;20.944;2023-05-23T04:02:58;100260.50;;;15.53;54.55
44441;BME280;30146;52.268;20.944;2023-05-23T04:05:30;100259.06;;;15.77;54.43
44441;BME280;30146;52.268;20.944;2023-05-23T04:08:02;100256.64;;;16.04;54.26
44441;BME280;30146;52.268;20.944;2023-05-23T04:10:34;100250.67;;;16.32;53.92
44441;BME280;30146;52.268;20.944;2023-05-23T04:13:05;100248.29;;;16.66;53.47
44441;BME280;30146;52.268;20.944;2023-05-23T04:15:36;100247.69;;;17.02;52.97
44441;BME280;30146;52.268;20.944;2023-05-23T04:18:11;100243.98;;;17.44;52.55
44441;BME280;30146;52.268;20.944;2023-05-23T04:20:45;100244.98;;;18.05;52.61
44441;BME280;30146;52.268;20.944;2023-05-23T04:23:16;100243.27;;;18.85;52.76
44441;BME280;30146;52.268;20.944;2023-05-23T04:25:50;100242.73;;;19.78;52.46
44441;BME280;30146;52.268;20.944;2023-05-23T04:28:26;100239.34;;;20.75;51.82
44441;BME280;30146;52.268;20.944;2023-05-23T04:30:57;100242.74;;;21.62;50.20
44441;BME280;30146;52.268;20.944;2023-05-23T04:33:31;100243.35;;;22.47;49.36
44441;BME280;30146;52.268;20.944;2023-05-23T04:36:05;100243.77;;;23.33;48.18
44441;BME280;30146;52.268;20.944;2023-05-23T04:38:39;100237.84;;;24.11;46.65
44441;BME280;30146;52.268;20.944;2023-05-23T04:41:11;100236.86;;;24.81;45.18
44441;BME280;30146;52.268;20.944;2023-05-23T04:43:45;100235.92;;;25.51;44.08
44441;BME280;30146;52.268;20.944;2023-05-23T04:46:24;100234.36;;;26.16;42.60
44441;BME280;30146;52.268;20.944;2023-05-23T04:49:10;100234.19;;;26.82;41.31
44441;BME280;30146;52.268;20.944;2023-05-23T04:51:43;100235.11;;;27.45;40.67
44441;BME280;30146;52.268;20.944;2023-05-23T04:54:28;100231.64;;;28.15;39.70
44441;BME280;30146;52.268;20.944;2023-05-23T04:57:01;100233.00;;;28.77;38.87
44441;BME280;30146;52.268;20.944;2023-05-23T04:59:32;100229.69;;;29.32;37.82
44441;BME280;30146;52.268;20.944;2023-05-23T05:02:05;100229.85;;;29.77;36.41
44441;BME280;30146;52.268;20.944;2023-05-23T05:04:36;100231.48;;;30.18;35.48
44441;BME280;30146;52.268;20.944;2023-05-23T05:07:08;100228.77;;;30.57;35.10
44441;BME280;30146;52.268;20.944;2023-05-23T05:09:39;100225.27;;;31.01;34.65
44441;BME280;30146;52.268;20.944;2023-05-23T05:12:12;100225.05;;;31.37;33.50
44441;BME280;30146;52.268;20.944;2023-05-23T05:14:43;100225.73;;;31.73;33.10
44441;BME280;30146;52.268;20.944;2023-05-23T05:17:14;100219.93;;;32.12;32.67
44441;BME280;30146;52.268;20.944;2023-05-23T05:19:58;100217.30;;;32.37;31.38
44441;BME280;30146;52.268;20.944;2023-05-23T05:32:06;100216.13;;;32.31;28.48
44441;BME280;30146;52.268;20.944;2023-05-23T05:34:39;100215.60;;;32.45;28.76
44441;BME280;30146;52.268;20.944;2023-05-23T05:37:12;100211.27;;;32.59;28.19
44441;BME280;30146;52.268;20.944;2023-05-23T05:39:44;100211.73;;;32.60;27.82
44441;BME280;30146;52.268;20.944;2023-05-23T05:42:15;100212.23;;;32.77;27.74
44441;BME280;30146;52.268;20.944;2023-05-23T05:44:47;100211.67;;;32.99;27.43
44441;BME280;30146;52.268;20.944;2023-05-23T05:47:18;100209.47;;;33.10;26.77
44441;BME280;30146;52.268;20.944;2023-05-23T05:49:49;100210.88;;;33.15;26.84
44441;BME280;30146;52.268;20.944;2023-05-23T05:52:21;100207.65;;;33.33;26.63
44441;BME280;30146;52.268;20.944;2023-05-23T05:54:53;100208.07;;;33.47;26.21
44441;BME280;30146;52.268;20.944;2023-05-23T05:57:27;100209.77;;;33.65;25.73
44441;BME280;30146;52.268;20.944;2023-05-23T05:59:58;100204.88;;;33.76;25.46
44441;BME280;30146;52.268;20.944;2023-05-23T06:02:29;100207.82;;;33.96;25.48
44441;BME280;30146;52.268;20.944;2023-05-23T06:05:02;100204.83;;;34.26;25.31
44441;BME280;30146;52.268;20.944;2023-05-23T06:07:33;100201.63;;;34.44;24.88
44441;BME280;30146;52.268;20.944;2023-05-23T06:10:09;100201.80;;;34.66;24.63
44441;BME280;30146;52.268;20.944;2023-05-23T06:12:43;100199.16;;;34.80;24.44
44441;BME280;30146;52.268;20.944;2023-05-23T06:15:14;100196.26;;;34.86;23.85
44441;BME280;30146;52.268;20.944;2023-05-23T06:17:45;100196.18;;;34.97;24.15
44441;BME280;30146;52.268;20.944;2023-05-23T06:20:17;100192.67;;;35.16;23.85
44441;BME280;30146;52.268;20.944;2023-05-23T06:22:48;100197.05;;;35.28;23.44
44441;BME280;30146;52.268;20.944;2023-05-23T06:25:23;100193.31;;;35.23;23.54
44441;BME280;30146;52.268;20.944;2023-05-23T06:27:54;100193.61;;;35.19;22.91
44441;BME280;30146;52.268;20.944;2023-05-23T06:30:25;100191.68;;;35.22;23.47
44441;BME280;30146;52.268;20.944;2023-05-23T06:32:58;100191.98;;;35.47;23.53
44441;BME280;30146;52.268;20.944;2023-05-23T06:35:29;100198.16;;;35.70;23.42
44441;BME280;30146;52.268;20.944;2023-05-23T06:38:02;100193.33;;;35.70;22.64
44441;BME280;30146;52.268;20.944;2023-05-23T06:40:33;100190.09;;;35.60;22.67
44441;BME280;30146;52.268;20.944;2023-05-23T06:43:04;100185.17;;;35.24;22.19
44441;BME280;30146;52.268;20.944;2023-05-23T06:45:53;100179.16;;;34.78;22.04
44441;BME280;30146;52.268;20.944;2023-05-23T06:48:26;100176.22;;;34.23;22.16
44441;BME280;30146;52.268;20.944;2023-05-23T06:50:59;100172.15;;;33.67;22.45
44441;BME280;30146;52.268;20.944;2023-05-23T06:53:31;100173.09;;;33.19;22.59
44441;BME280;30146;52.268;20.944;2023-05-23T06:56:02;100168.75;;;32.76;23.07
44441;BME280;30146;52.268;20.944;2023-05-23T06:58:34;100163.61;;;32.31;23.25
44441;BME280;30146;52.268;20.944;2023-05-23T07:01:06;100164.73;;;31.96;23.56
44441;BME280;30146;52.268;20.944;2023-05-23T07:03:44;100164.44;;;31.64;23.94
44441;BME280;30146;52.268;20.944;2023-05-23T07:06:16;100163.13;;;31.44;24.04
44441;BME280;30146;52.268;20.944;2023-05-23T07:08:47;100156.38;;;31.16;23.93
44441;BME280;30146;52.268;20.944;2023-05-23T07:11:18;100154.30;;;30.96;24.36
44441;BME280;30146;52.268;20.944;2023-05-23T07:13:54;100151.63;;;30.77;23.90
44441;BME280;30146;52.268;20.944;2023-05-23T07:16:51;100151.78;;;30.45;24.11
44441;BME280;30146;52.268;20.944;2023-05-23T07:19:23;100151.32;;;30.20;24.44
44441;BME280;30146;52.268;20.944;2023-05-23T07:21:54;100145.29;;;30.05;24.52
44441;BME280;30146;52.268;20.944;2023-05-23T07:24:25;100148.05;;;29.89;24.50
44441;BME280;30146;52.268;20.944;2023-05-23T07:26:57;100148.25;;;29.70;24.50
44441;BME280;30146;52.268;20.944;2023-05-23T07:29:29;100145.89;;;29.45;24.57
44441;BME280;30146;52.268;20.944;2023-05-23T07:32:00;100149.61;;;29.08;23.93
44441;BME280;30146;52.268;20.944;2023-05-23T07:34:31;100143.88;;;28.46;23.77
44441;BME280;30146;52.268;20.944;2023-05-23T07:37:03;100137.13;;;28.02;24.56
44441;BME280;30146;52.268;20.944;2023-05-23T07:39:40;100139.38;;;27.75;24.81
44441;BME280;30146;52.268;20.944;2023-05-23T07:42:11;100134.13;;;27.48;25.15
44441;BME280;30146;52.268;20.944;2023-05-23T07:44:43;100132.52;;;27.31;25.64
44441;BME280;30146;52.268;20.944;2023-05-23T07:47:14;100131.21;;;27.28;26.14
44441;BME280;30146;52.268;20.944;2023-05-23T07:49:45;100128.39;;;27.35;26.32
44441;BME280;30146;52.268;20.944;2023-05-23T07:52:17;100129.92;;;27.33;26.18
44441;BME280;30146;52.268;20.944;2023-05-23T07:54:48;100123.98;;;27.18;26.05
44441;BME280;30146;52.268;20.944;2023-05-23T07:57:19;100125.11;;;27.08;26.40
44441;BME280;30146;52.268;20.944;2023-05-23T07:59:52;100121.80;;;26.97;26.24
44441;BME280;30146;52.268;20.944;2023-05-23T08:02:25;100118.39;;;26.83;26.62
44441;BME280;30146;52.268;20.944;2023-05-23T08:04:57;100114.91;;;26.74;26.77
44441;BME280;30146;52.268;20.944;2023-05-23T08:07:28;100115.95;;;26.76;27.20
44441;BME280;30146;52.268;20.944;2023-05-23T08:10:01;100117.59;;;26.80;27.23
44441;BME280;30146;52.268;20.944;2023-05-23T08:12:32;100114.64;;;26.84;27.27
44441;BME280;30146;52.268;20.944;2023-05-23T08:15:10;100112.65;;;26.89;27.22
44441;BME280;30146;52.268;20.944;2023-05-23T08:17:48;100112.05;;;26.94;27.36
44441;BME280;30146;52.268;20.944;2023-05-23T08:20:19;100111.53;;;26.98;27.39
44441;BME280;30146;52.268;20.944;2023-05-23T08:22:50;100112.05;;;26.96;27.21
44441;BME280;30146;52.268;20.944;2023-05-23T08:25:21;100109.83;;;26.96;27.27
44441;BME280;30146;52.268;20.944;2023-05-23T08:27:54;100115.21;;;26.94;26.86
44441;BME280;30146;52.268;20.944;2023-05-23T08:30:38;100114.23;;;26.80;26.90
44441;BME280;30146;52.268;20.944;2023-05-23T08:33:11;100109.27;;;26.77;27.08
44441;BME280;30146;52.268;20.944;2023-05-23T08:35:43;100103.05;;;26.75;26.92
44441;BME280;30146;52.268;20.944;2023-05-23T08:38:15;100096.21;;;26.75;27.03
44441;BME280;30146;52.268;20.944;2023-05-23T08:40:55;100095.26;;;26.79;27.00
44441;BME280;30146;52.268;20.944;2023-05-23T08:43:27;100097.44;;;26.82;27.17
44441;BME280;30146;52.268;20.944;2023-05-23T08:45:58;100096.52;;;26.76;27.19
44441;BME280;30146;52.268;20.944;2023-05-23T08:48:31;100101.95;;;26.69;26.74
44441;BME280;30146;52.268;20.944;2023-05-23T08:51:04;100096.76;;;26.58;26.32
44441;BME280;30146;52.268;20.944;2023-05-23T08:53:37;100087.03;;;26.47;26.46
44441;BME280;30146;52.268;20.944;2023-05-23T08:56:10;100080.30;;;26.48;26.64
44441;BME280;30146;52.268;20.944;2023-05-23T08:58:46;100080.45;;;26.51;26.64
44441;BME280;30146;52.268;20.944;2023-05-23T09:01:20;100085.33;;;26.56;26.80
44441;BME280;30146;52.268;20.944;2023-05-23T09:03:54;100079.56;;;26.62;27.11
44441;BME280;30146;52.268;20.944;2023-05-23T09:06:31;100072.95;;;26.70;27.27
44441;BME280;30146;52.268;20.944;2023-05-23T09:09:02;100071.86;;;26.71;27.26
44441;BME280;30146;52.268;20.944;2023-05-23T09:11:34;100080.91;;;26.67;27.65
44441;BME280;30146;52.268;20.944;2023-05-23T09:14:06;100086.88;;;26.61;27.08
44441;BME280;30146;52.268;20.944;2023-05-23T09:16:38;100077.30;;;26.44;26.99
44441;BME280;30146;52.268;20.944;2023-05-23T09:19:13;100072.04;;;26.31;26.89
44441;BME280;30146;52.268;20.944;2023-05-23T09:21:54;100076.10;;;26.17;26.99
44441;BME280;30146;52.268;20.944;2023-05-23T09:24:37;100074.04;;;25.94;26.28
44441;BME280;30146;52.268;20.944;2023-05-23T09:27:09;100072.89;;;25.75;26.20
44441;BME280;30146;52.268;20.944;2023-05-23T09:29:40;100065.63;;;25.71;26.36
44441;BME280;30146;52.268;20.944;2023-05-23T09:32:15;100065.05;;;25.74;26.62
44441;BME280;30146;52.268;20.944;2023-05-23T09:34:56;100063.23;;;25.66;26.47
44441;BME280;30146;52.268;20.944;2023-05-23T09:37:31;100061.56;;;25.70;27.03
44441;BME280;30146;52.268;20.944;2023-05-23T09:40:09;100068.19;;;25.79;26.70
44441;BME280;30146;52.268;20.944;2023-05-23T09:42:44;100069.39;;;25.84;26.19
44441;BME280;30146;52.268;20.944;2023-05-23T09:45:16;100061.38;;;25.88;25.97
44441;BME280;30146;52.268;20.944;2023-05-23T09:47:51;100075.10;;;25.87;25.84
44441;BME280;30146;52.268;20.944;2023-05-23T09:50:29;100061.79;;;25.85;25.79
44441;BME280;30146;52.268;20.944;2023-05-23T09:53:00;100057.52;;;25.84;25.79
44441;BME280;30146;52.268;20.944;2023-05-23T09:55:32;100062.80;;;25.85;26.07
44441;BME280;30146;52.268;20.944;2023-05-23T09:58:04;100051.93;;;25.88;26.26
44441;BME280;30146;52.268;20.944;2023-05-23T10:00:35;100054.39;;;26.00;26.25
44441;BME280;30146;52.268;20.944;2023-05-23T10:03:10;100062.06;;;26.13;26.46
44441;BME280;30146;52.268;20.944;2023-05-23T10:05:45;100059.38;;;26.18;26.17
44441;BME280;30146;52.268;20.944;2023-05-23T10:08:21;100057.91;;;26.19;26.30
44441;BME280;30146;52.268;20.944;2023-05-23T10:13:54;100054.89;;;25.84;25.85
44441;BME280;30146;52.268;20.944;2023-05-23T10:16:29;100048.59;;;25.66;26.04
44441;BME280;30146;52.268;20.944;2023-05-23T10:19:09;100044.65;;;25.60;26.34
44441;BME280;30146;52.268;20.944;2023-05-23T10:21:48;100044.95;;;25.67;26.69
44441;BME280;30146;52.268;20.944;2023-05-23T10:24:20;100048.33;;;25.73;26.45
44441;BME280;30146;52.268;20.944;2023-05-23T10:26:53;100059.09;;;25.77;26.25
44441;BME280;30146;52.268;20.944;2023-05-23T10:29:24;100058.52;;;25.75;25.90
44441;BME280;30146;52.268;20.944;2023-05-23T10:31:57;100052.28;;;25.56;26.12
44441;BME280;30146;52.268;20.944;2023-05-23T10:34:36;100045.16;;;25.35;26.10
44441;BME280;30146;52.268;20.944;2023-05-23T10:37:14;100040.21;;;25.22;26.33
44441;BME280;30146;52.268;20.944;2023-05-23T10:39:56;100039.48;;;25.20;26.53
44441;BME280;30146;52.268;20.944;2023-05-23T10:42:37;100039.58;;;25.18;26.94
44441;BME280;30146;52.268;20.944;2023-05-23T10:45:19;100035.67;;;25.21;26.83
44441;BME280;30146;52.268;20.944;2023-05-23T10:47:53;100040.80;;;25.28;27.14
44441;BME280;30146;52.268;20.944;2023-05-23T10:50:33;100040.29;;;25.28;26.78
44441;BME280;30146;52.268;20.944;2023-05-23T10:53:07;100042.68;;;25.26;26.91
44441;BME280;30146;52.268;20.944;2023-05-23T10:55:39;100037.13;;;25.25;26.57
44441;BME280;30146;52.268;20.944;2023-05-23T10:58:14;100030.89;;;25.32;26.99
44441;BME280;30146;52.268;20.944;2023-05-23T11:00:53;100026.41;;;25.45;27.05
44441;BME280;30146;52.268;20.944;2023-05-23T11:03:48;100027.65;;;25.53;26.79
44441;BME280;30146;52.268;20.944;2023-05-23T11:06:37;100030.07;;;25.61;26.87
44441;BME280;30146;52.268;20.944;2023-05-23T11:09:12;100027.64;;;25.65;26.72
44441;BME280;30146;52.268;20.944;2023-05-23T11:11:55;100022.05;;;25.65;26.69
44441;BME280;30146;52.268;20.944;2023-05-23T11:17:33;100021.98;;;25.63;26.53
44441;BME280;30146;52.268;20.944;2023-05-23T11:20:06;100020.05;;;25.62;26.38
44441;BME280;30146;52.268;20.944;2023-05-23T11:22:53;100022.00;;;25.59;26.82
44441;BME280;30146;52.268;20.944;2023-05-23T11:25:40;100015.42;;;25.48;26.81
44441;BME280;30146;52.268;20.944;2023-05-23T11:28:12;100011.55;;;25.33;26.84
44441;BME280;30146;52.268;20.944;2023-05-23T11:30:48;100009.35;;;25.22;26.87
44441;BME280;30146;52.268;20.944;2023-05-23T11:33:19;100014.53;;;25.21;27.18
44441;BME280;30146;52.268;20.944;2023-05-23T11:35:51;100008.70;;;25.22;27.36
44441;BME280;30146;52.268;20.944;2023-05-23T11:38:22;100008.47;;;25.27;27.30
44441;BME280;30146;52.268;20.944;2023-05-23T11:40:54;100002.92;;;25.31;27.41
44441;BME280;30146;52.268;20.944;2023-05-23T11:43:25;100010.36;;;25.37;27.30
44441;BME280;30146;52.268;20.944;2023-05-23T11:45:56;99996.83;;;25.35;27.27
44441;BME280;30146;52.268;20.944;2023-05-23T11:48:27;100000.45;;;25.36;27.45
44441;BME280;30146;52.268;20.944;2023-05-23T11:50:58;99997.16;;;25.42;27.60
44441;BME280;30146;52.268;20.944;2023-05-23T11:53:29;99993.79;;;25.52;27.67
44441;BME280;30146;52.268;20.944;2023-05-23T11:56:02;99994.75;;;25.65;27.74
44441;BME280;30146;52.268;20.944;2023-05-23T11:58:34;99988.65;;;25.73;27.38
44441;BME280;30146;52.268;20.944;2023-05-23T12:01:06;99993.45;;;25.75;27.07
44441;BME280;30146;52.268;20.944;2023-05-23T12:03:46;99995.55;;;25.68;26.93
44441;BME280;30146;52.268;20.944;2023-05-23T12:06:18;99987.73;;;25.58;26.87
44441;BME280;30146;52.268;20.944;2023-05-23T12:08:50;99986.48;;;25.51;27.19
44441;BME280;30146;52.268;20.944;2023-05-23T12:11:21;99977.41;;;25.51;27.08
44441;BME280;30146;52.268;20.944;2023-05-23T12:13:54;99978.25;;;25.54;27.46
44441;BME280;30146;52.268;20.944;2023-05-23T12:16:26;99975.39;;;25.62;27.64
44441;BME280;30146;52.268;20.944;2023-05-23T12:18:58;99980.46;;;25.66;27.24
44441;BME280;30146;52.268;20.944;2023-05-23T12:21:41;99982.18;;;25.62;26.86
44441;BME280;30146;52.268;20.944;2023-05-23T12:24:15;99981.45;;;25.53;26.79
44441;BME280;30146;52.268;20.944;2023-05-23T12:26:51;99976.13;;;25.45;27.10
44441;BME280;30146;52.268;20.944;2023-05-23T12:29:31;99978.56;;;25.43;27.23
44441;BME280;30146;52.268;20.944;2023-05-23T12:32:05;99976.02;;;25.40;27.37
44441;BME280;30146;52.268;20.944;2023-05-23T12:34:41;99976.05;;;25.42;27.17
44441;BME280;30146;52.268;20.944;2023-05-23T12:37:13;99976.03;;;25.42;27.15
44441;BME280;30146;52.268;20.944;2023-05-23T12:40:16;99972.71;;;25.37;27.13
44441;BME280;30146;52.268;20.944;2023-05-23T12:42:55;99971.65;;;25.29;27.00
44441;BME280;30146;52.268;20.944;2023-05-23T12:45:33;99970.77;;;25.24;27.40
44441;BME280;30146;52.268;20.944;2023-05-23T12:48:06;99968.48;;;25.22;27.26
44441;BME280;30146;52.268;20.944;2023-05-23T12:50:37;99968.62;;;25.20;27.42
44441;BME280;30146;52.268;20.944;2023-05-23T12:53:08;99964.23;;;25.18;27.43
44441;BME280;30146;52.268;20.944;2023-05-23T12:55:40;99971.27;;;25.16;27.37
44441;BME280;30146;52.268;20.944;2023-05-23T12:58:11;99964.08;;;25.13;27.35
44441;BME280;30146;52.268;20.944;2023-05-23T13:00:42;99961.30;;;25.12;27.57
44441;BME280;30146;52.268;20.944;2023-05-23T13:03:13;99963.00;;;25.13;27.40
44441;BME280;30146;52.268;20.944;2023-05-23T13:05:45;99959.54;;;25.08;27.29
44441;BME280;30146;52.268;20.944;2023-05-23T13:08:16;99953.19;;;25.02;27.36
44441;BME280;30146;52.268;20.944;2023-05-23T13:10:49;99950.64;;;25.05;27.62
44441;BME280;30146;52.268;20.944;2023-05-23T13:13:20;99949.08;;;25.10;27.60
44441;BME280;30146;52.268;20.944;2023-05-23T13:15:51;99941.98;;;25.13;27.42
44441;BME280;30146;52.268;20.944;2023-05-23T13:18:22;99946.02;;;25.15;27.35
44441;BME280;30146;52.268;20.944;2023-05-23T13:20:57;99945.66;;;25.15;27.51
44441;BME280;30146;52.268;20.944;2023-05-23T13:23:31;99944.04;;;25.14;27.41
44441;BME280;30146;52.268;20.944;2023-05-23T13:26:02;99939.33;;;25.09;27.25
44441;BME280;30146;52.268;20.944;2023-05-23T13:28:34;99945.60;;;25.05;27.48
44441;BME280;30146;52.268;20.944;2023-05-23T13:31:05;99942.91;;;24.99;27.38
44441;BME280;30146;52.268;20.944;2023-05-23T13:33:37;99940.90;;;24.93;27.46
44441;BME280;30146;52.268;20.944;2023-05-23T13:36:08;99934.52;;;24.90;27.61
44441;BME280;30146;52.268;20.944;2023-05-23T13:38:39;99935.19;;;24.88;27.62
44441;BME280;30146;52.268;20.944;2023-05-23T13:41:12;99931.15;;;24.88;27.89